createdAt,value
2023-06-04T00:01:40.182Z,17.40
2023-06-04T00:04:07.123Z,17.30
2023-06-04T00:06:34.158Z,17.30
2023-06-04T00:09:01.123Z,17.20
2023-06-04T00:11:29.145Z,17.30
2023-06-04T00:13:57.267Z,17.30
2023-06-04T00:16:25.204Z,17.20
2023-06-04T00:18:53.164Z,17.10
2023-06-04T00:21:20.130Z,17.10
2023-06-04T00:23:49.021Z,17.00
2023-06-04T00:26:16.215Z,17.00
2023-06-04T00:28:47.194Z,17.10
2023-06-04T00:31:14.185Z,17.10
2023-06-04T00:33:41.317Z,16.90
2023-06-04T00:36:14.659Z,16.90
2023-06-04T00:38:41.652Z,16.90
2023-06-04T00:41:09.862Z,16.90
2023-06-04T00:43:39.137Z,16.80
2023-06-04T00:46:07.794Z,16.90
2023-06-04T00:48:34.842Z,16.80
2023-06-04T00:51:01.829Z,16.80
2023-06-04T00:53:29.993Z,16.80
2023-06-04T00:55:56.946Z,16.80
2023-06-04T00:58:25.739Z,16.70
2023-06-04T01:01:00.921Z,16.70
2023-06-04T01:03:32.753Z,16.70
2023-06-04T01:06:29.686Z,16.60
2023-06-04T01:08:59.639Z,16.60
2023-06-04T01:11:35.753Z,16.60
2023-06-04T01:14:04.638Z,16.50
2023-06-04T01:16:41.959Z,16.40
2023-06-04T01:19:44.206Z,16.50
2023-06-04T01:22:36.738Z,16.40
2023-06-04T01:25:24.780Z,16.40
2023-06-04T01:27:56.795Z,16.30
2023-06-04T01:30:32.905Z,16.20
2023-06-04T01:33:04.673Z,16.10
2023-06-04T01:35:32.502Z,16.10
2023-06-04T01:37:59.454Z,16.00
2023-06-04T01:40:27.999Z,16.00
2023-06-04T01:42:56.883Z,16.00
2023-06-04T01:45:24.968Z,16.00
2023-06-04T01:47:53.262Z,15.90
2023-06-04T01:50:20.484Z,16.00
2023-06-04T01:52:47.488Z,15.90
2023-06-04T01:55:15.866Z,15.90
2023-06-04T01:57:45.243Z,15.80
2023-06-04T02:00:13.372Z,15.80
2023-06-04T02:02:42.902Z,15.70
2023-06-04T02:05:11.386Z,15.80
2023-06-04T02:07:40.234Z,15.70
2023-06-04T02:10:18.730Z,15.70
2023-06-04T02:12:59.590Z,15.60
2023-06-04T02:15:28.649Z,15.40
2023-06-04T02:18:00.916Z,15.30
2023-06-04T02:20:28.817Z,15.20
2023-06-04T02:22:56.475Z,15.20
2023-06-04T02:25:24.829Z,15.20
2023-06-04T02:27:51.820Z,15.30
2023-06-04T02:30:19.198Z,15.10
2023-06-04T02:32:49.853Z,15.10
2023-06-04T02:35:19.218Z,15.00
2023-06-04T02:37:46.449Z,15.00
2023-06-04T02:40:13.465Z,15.00
2023-06-04T02:42:41.406Z,15.00
2023-06-04T02:45:09.479Z,15.00
2023-06-04T02:47:38.915Z,14.90
2023-06-04T02:50:06.666Z,14.90
2023-06-04T02:52:38.313Z,15.00
2023-06-04T02:55:08.600Z,14.90
2023-06-04T02:57:37.820Z,14.90
2023-06-04T03:00:13.604Z,14.90
2023-06-04T03:02:44.489Z,14.80
2023-06-04T03:05:13.881Z,14.70
2023-06-04T03:07:44.648Z,14.70
2023-06-04T03:10:13.282Z,14.70
2023-06-04T03:12:40.676Z,14.70
2023-06-04T03:15:08.232Z,14.60
2023-06-04T03:17:35.238Z,14.60
2023-06-04T03:20:02.495Z,14.60
2023-06-04T03:22:32.371Z,14.60
2023-06-04T03:24:59.349Z,14.50
2023-06-04T03:27:27.536Z,14.50
2023-06-04T03:29:54.481Z,14.50
2023-06-04T03:32:21.770Z,14.50
2023-06-04T03:34:49.145Z,14.40
2023-06-04T03:37:18.756Z,14.50
2023-06-04T03:39:45.747Z,14.50
2023-06-04T03:42:16.140Z,14.50
2023-06-04T03:44:43.689Z,14.40
2023-06-04T03:47:12.326Z,14.30
2023-06-04T03:49:42.056Z,14.40
2023-06-04T03:52:09.151Z,14.40
2023-06-04T03:54:37.932Z,14.30
2023-06-04T03:57:05.487Z,14.40
2023-06-04T03:59:32.489Z,14.30
2023-06-04T04:01:59.745Z,14.30
2023-06-04T04:04:28.425Z,14.40
2023-06-04T04:06:55.549Z,14.40
2023-06-04T04:09:22.553Z,14.40
2023-06-04T04:11:49.390Z,14.30
2023-06-04T04:14:16.374Z,14.30
2023-06-04T04:16:43.744Z,14.40
2023-06-04T04:19:12.958Z,14.30
2023-06-04T04:21:40.450Z,14.30
2023-06-04T04:24:09.120Z,14.30
2023-06-04T04:26:38.678Z,14.20
2023-06-04T04:29:05.737Z,14.20
2023-06-04T04:31:37.606Z,14.20
2023-06-04T04:34:09.663Z,14.10
2023-06-04T04:36:41.531Z,14.20
2023-06-04T04:39:11.035Z,14.30
2023-06-04T04:41:39.187Z,14.30
2023-06-04T04:44:06.984Z,14.30
2023-06-04T04:46:34.364Z,14.20
2023-06-04T04:49:01.340Z,14.20
2023-06-04T04:51:29.092Z,14.20
2023-06-04T04:54:01.714Z,14.20
2023-06-04T04:56:38.322Z,14.30
2023-06-04T04:59:06.086Z,14.50
2023-06-04T05:01:35.104Z,14.30
2023-06-04T05:04:03.501Z,14.40
2023-06-04T05:06:31.967Z,14.50
2023-06-04T05:09:01.164Z,14.40
2023-06-04T05:11:29.830Z,14.50
2023-06-04T05:13:58.780Z,14.50
2023-06-04T05:16:26.283Z,14.50
2023-06-04T05:18:53.785Z,14.60
2023-06-04T05:21:24.177Z,14.70
2023-06-04T05:23:57.340Z,14.60
2023-06-04T05:26:29.369Z,14.60
2023-06-04T05:29:00.370Z,14.60
2023-06-04T05:31:34.362Z,14.50
2023-06-04T05:34:08.491Z,14.50
2023-06-04T05:36:40.386Z,14.70
2023-06-04T05:39:10.463Z,14.70
2023-06-04T05:41:46.537Z,14.60
2023-06-04T05:44:16.276Z,14.60
2023-06-04T05:46:43.496Z,14.70
2023-06-04T05:49:11.339Z,14.80
2023-06-04T05:51:38.636Z,14.80
2023-06-04T05:54:05.897Z,14.90
2023-06-04T05:56:36.496Z,15.10
2023-06-04T05:59:03.565Z,15.10
2023-06-04T06:01:30.782Z,15.10
2023-06-04T06:03:58.159Z,15.20
2023-06-04T06:06:30.949Z,15.30
2023-06-04T06:09:22.127Z,15.40
2023-06-04T06:11:52.862Z,15.40
2023-06-04T06:15:11.845Z,15.40
2023-06-04T06:18:35.549Z,15.50
2023-06-04T06:21:02.787Z,15.70
2023-06-04T06:23:30.062Z,15.80
2023-06-04T06:25:58.195Z,15.90
2023-06-04T06:28:32.564Z,16.00
2023-06-04T06:30:59.968Z,16.20
2023-06-04T06:33:27.136Z,16.20
2023-06-04T06:35:55.548Z,16.20
2023-06-04T06:38:24.488Z,16.30
2023-06-04T06:40:52.095Z,16.50
2023-06-04T06:43:22.161Z,16.60
2023-06-04T06:45:50.764Z,16.70
2023-06-04T06:48:38.582Z,16.80
2023-06-04T06:51:05.819Z,16.90
2023-06-04T06:53:34.042Z,16.90
2023-06-04T06:56:01.231Z,16.90
2023-06-04T06:58:31.993Z,17.00
2023-06-04T07:01:00.433Z,17.00
2023-06-04T07:03:27.685Z,16.90
2023-06-04T07:06:01.560Z,17.00
2023-06-04T07:08:29.601Z,17.20
2023-06-04T07:10:59.447Z,17.30
2023-06-04T07:13:28.622Z,17.40
2023-06-04T07:15:59.974Z,17.50
2023-06-04T07:18:41.014Z,17.50
2023-06-04T07:21:11.210Z,17.50
2023-06-04T07:23:38.250Z,17.50
2023-06-04T07:26:07.848Z,17.60
2023-06-04T07:28:36.344Z,17.70
2023-06-04T07:31:06.962Z,17.70
2023-06-04T07:33:44.361Z,17.90
2023-06-04T07:36:17.332Z,18.10
2023-06-04T07:39:01.530Z,18.20
2023-06-04T07:41:32.106Z,18.30
2023-06-04T07:43:58.994Z,18.30
2023-06-04T07:46:27.126Z,18.30
2023-06-04T07:48:58.004Z,18.40
2023-06-04T07:51:26.649Z,18.60
2023-06-04T07:53:53.769Z,18.50
2023-06-04T07:56:21.879Z,18.60
2023-06-04T07:58:50.390Z,18.80
2023-06-04T08:01:18.589Z,18.90
2023-06-04T08:03:47.091Z,19.00
2023-06-04T08:06:16.403Z,19.00
2023-06-04T08:08:49.607Z,19.20
2023-06-04T08:11:19.313Z,19.20
2023-06-04T08:13:46.311Z,19.20
2023-06-04T08:16:13.475Z,19.20
2023-06-04T08:18:42.216Z,19.40
2023-06-04T08:21:18.083Z,19.40
2023-06-04T08:23:45.129Z,19.60
2023-06-04T08:26:12.151Z,19.70
2023-06-04T08:28:41.305Z,19.90
2023-06-04T08:31:08.929Z,19.90
2023-06-04T08:33:38.096Z,19.90
2023-06-04T08:36:06.211Z,19.90
2023-06-04T08:38:34.194Z,20.00
2023-06-04T08:41:16.607Z,20.00
2023-06-04T08:43:46.671Z,20.10
2023-06-04T08:46:15.894Z,20.20
2023-06-04T08:48:46.131Z,20.10
2023-06-04T08:51:13.668Z,20.30
2023-06-04T08:53:49.036Z,20.30
2023-06-04T08:56:16.335Z,20.50
2023-06-04T08:58:44.195Z,20.60
2023-06-04T09:01:12.131Z,20.50
2023-06-04T09:03:39.962Z,20.60
2023-06-04T09:06:08.253Z,20.70
2023-06-04T09:08:39.166Z,20.90
2023-06-04T09:11:11.141Z,21.00
2023-06-04T09:13:39.639Z,21.00
2023-06-04T09:16:08.599Z,20.90
2023-06-04T09:18:35.929Z,21.00
2023-06-04T09:21:07.001Z,21.20
2023-06-04T09:23:47.300Z,21.10
2023-06-04T09:26:15.230Z,21.40
2023-06-04T09:28:43.253Z,21.50
2023-06-04T09:31:16.642Z,21.60
2023-06-04T09:33:49.039Z,21.60
2023-06-04T09:36:17.382Z,21.70
2023-06-04T09:38:45.122Z,21.60
2023-06-04T09:41:18.435Z,21.60
2023-06-04T09:43:45.344Z,21.70
2023-06-04T09:46:17.826Z,21.80
2023-06-04T09:48:46.021Z,21.70
2023-06-04T09:51:16.632Z,21.70
2023-06-04T09:53:54.182Z,21.70
2023-06-04T09:56:22.340Z,21.80
2023-06-04T09:58:50.636Z,21.90
2023-06-04T10:01:17.914Z,21.90
2023-06-04T10:03:49.690Z,22.00
2023-06-04T10:06:20.530Z,21.80
2023-06-04T10:08:51.716Z,21.90
2023-06-04T10:11:32.285Z,21.90
2023-06-04T10:14:07.476Z,22.00
2023-06-04T10:16:39.752Z,22.00
2023-06-04T10:19:08.677Z,22.10
2023-06-04T10:21:36.904Z,22.30
2023-06-04T10:24:16.606Z,22.30
2023-06-04T10:26:48.526Z,22.40
2023-06-04T10:29:15.937Z,22.30
2023-06-04T10:31:45.200Z,22.30
2023-06-04T10:34:14.521Z,22.30
2023-06-04T10:36:46.935Z,22.40
2023-06-04T10:39:14.028Z,22.40
2023-06-04T10:41:41.336Z,22.40
2023-06-04T10:44:08.373Z,22.40
2023-06-04T10:46:44.436Z,22.50
2023-06-04T10:49:16.314Z,22.70
2023-06-04T10:51:45.065Z,22.70
2023-06-04T10:54:25.201Z,22.70
2023-06-04T10:56:55.461Z,22.90
2023-06-04T10:59:25.629Z,22.90
2023-06-04T11:01:53.100Z,22.80
2023-06-04T11:04:25.023Z,22.90
2023-06-04T11:07:12.183Z,22.90
2023-06-04T11:09:49.503Z,23.10
2023-06-04T11:12:20.372Z,23.10
2023-06-04T11:15:16.138Z,23.10
2023-06-04T11:17:59.614Z,23.30
2023-06-04T11:20:27.100Z,23.50
2023-06-04T11:22:58.619Z,23.70
2023-06-04T11:25:27.427Z,24.00
2023-06-04T11:27:59.858Z,24.10
2023-06-04T11:30:30.429Z,24.50
2023-06-04T11:33:09.221Z,24.70
2023-06-04T11:35:45.660Z,25.10
2023-06-04T11:38:12.651Z,25.40
2023-06-04T11:40:39.974Z,25.50
2023-06-04T11:43:10.615Z,25.80
2023-06-04T11:45:38.449Z,26.00
2023-06-04T11:48:07.054Z,25.80
2023-06-04T11:50:41.666Z,26.10
2023-06-04T11:53:09.366Z,26.40
2023-06-04T11:55:39.127Z,26.60
2023-06-04T11:58:07.567Z,26.50
2023-06-04T12:00:35.813Z,26.40
2023-06-04T12:03:03.112Z,26.50
2023-06-04T12:05:36.022Z,26.60
2023-06-04T12:08:11.023Z,26.70
2023-06-04T12:10:44.556Z,26.70
2023-06-04T12:13:12.538Z,27.00
2023-06-04T12:15:39.885Z,27.40
2023-06-04T12:18:11.158Z,27.50
2023-06-04T12:20:40.029Z,27.70
2023-06-04T12:23:08.494Z,27.70
2023-06-04T12:25:39.023Z,27.80
2023-06-04T12:28:09.573Z,28.10
2023-06-04T12:30:38.638Z,27.90
2023-06-04T12:33:05.874Z,28.00
2023-06-04T12:35:34.790Z,28.10
2023-06-04T12:38:06.806Z,28.50
2023-06-04T12:40:34.840Z,28.70
2023-06-04T12:43:02.041Z,28.40
2023-06-04T12:45:31.171Z,28.70
2023-06-04T12:48:04.173Z,28.90
2023-06-04T12:50:34.931Z,29.10
2023-06-04T12:53:02.196Z,29.00
2023-06-04T12:55:30.578Z,28.80
2023-06-04T12:58:01.110Z,29.10
2023-06-04T13:00:30.747Z,29.20
2023-06-04T13:02:58.915Z,29.10
2023-06-04T13:05:28.358Z,29.30
2023-06-04T13:07:57.567Z,29.60
2023-06-04T13:10:24.802Z,29.80
2023-06-04T13:12:52.788Z,30.20
2023-06-04T13:15:21.002Z,30.40
2023-06-04T13:17:48.078Z,30.30
2023-06-04T13:20:15.226Z,29.60
2023-06-04T13:22:47.393Z,30.00
2023-06-04T13:25:14.642Z,30.10
2023-06-04T13:27:43.232Z,30.30
2023-06-04T13:30:10.976Z,30.40
2023-06-04T13:32:38.507Z,30.20
2023-06-04T13:35:07.220Z,30.50
2023-06-04T13:37:35.829Z,30.60
2023-06-04T13:40:02.889Z,30.50
2023-06-04T13:42:29.934Z,30.80
2023-06-04T13:54:53.910Z,31.10
2023-06-04T14:08:36.971Z,32.30
2023-06-04T14:11:04.452Z,32.60
2023-06-04T14:13:34.480Z,32.60
2023-06-04T14:16:13.667Z,32.10
2023-06-04T14:18:42.620Z,31.70
2023-06-04T14:21:11.390Z,31.80
2023-06-04T14:23:39.710Z,31.80
2023-06-04T14:26:08.988Z,32.30
2023-06-04T14:28:37.298Z,32.30
2023-06-04T14:31:04.487Z,32.60
2023-06-04T14:33:33.505Z,33.00
2023-06-04T14:36:00.491Z,32.90
2023-06-04T14:38:29.423Z,33.00
2023-06-04T14:40:57.503Z,33.40
2023-06-04T14:43:26.662Z,33.40
2023-06-04T14:46:02.919Z,33.90
2023-06-04T14:48:31.032Z,33.70
2023-06-04T14:50:58.233Z,33.40
2023-06-04T14:53:25.202Z,33.60
2023-06-04T14:55:57.181Z,33.70
2023-06-04T14:58:27.110Z,33.90
2023-06-04T15:00:54.639Z,34.60
2023-06-04T15:03:22.745Z,34.50
2023-06-04T15:05:50.799Z,33.80
2023-06-04T15:08:19.449Z,33.70
2023-06-04T15:10:46.438Z,33.60
2023-06-04T15:13:13.412Z,33.10
2023-06-04T15:15:41.557Z,32.50
2023-06-04T15:18:09.656Z,31.90
2023-06-04T15:20:36.832Z,31.10
2023-06-04T15:23:03.781Z,30.20
2023-06-04T15:25:30.932Z,29.20
2023-06-04T15:28:00.193Z,28.50
2023-06-04T15:30:28.197Z,28.10
2023-06-04T15:32:55.580Z,27.90
2023-06-04T15:35:22.479Z,27.40
2023-06-04T15:37:49.469Z,27.30
2023-06-04T15:40:16.442Z,27.10
2023-06-04T15:42:43.378Z,26.70
2023-06-04T15:45:10.860Z,26.60
2023-06-04T15:47:37.947Z,26.60
2023-06-04T15:50:05.431Z,26.50
2023-06-04T15:52:32.369Z,26.30
2023-06-04T15:55:00.438Z,26.20
2023-06-04T15:57:28.677Z,26.20
2023-06-04T15:59:56.742Z,26.00
2023-06-04T16:02:23.925Z,26.10
2023-06-04T16:04:50.980Z,26.10
2023-06-04T16:07:20.020Z,26.20
2023-06-04T16:09:50.759Z,26.30
2023-06-04T16:12:19.836Z,26.30
2023-06-04T16:14:49.729Z,26.40
2023-06-04T16:17:16.678Z,26.40
2023-06-04T16:19:45.722Z,26.40
2023-06-04T16:22:16.783Z,26.60
2023-06-04T16:24:51.977Z,26.60
2023-06-04T16:27:18.984Z,26.60
2023-06-04T16:29:47.872Z,26.70
2023-06-04T16:32:16.440Z,26.80
2023-06-04T16:34:43.852Z,26.80
2023-06-04T16:37:11.092Z,26.40
2023-06-04T16:39:38.340Z,26.70
2023-06-04T16:42:05.850Z,27.30
2023-06-04T16:44:32.888Z,28.00
2023-06-04T16:46:59.831Z,28.20
2023-06-04T16:49:26.985Z,28.50
2023-06-04T16:51:54.627Z,28.30
2023-06-04T16:54:22.626Z,28.00
2023-06-04T16:56:50.702Z,27.70
2023-06-04T16:59:18.721Z,27.50
2023-06-04T17:01:45.858Z,27.30
2023-06-04T17:04:12.788Z,26.90
2023-06-04T17:06:41.526Z,26.60
2023-06-04T17:09:08.482Z,26.50
2023-06-04T17:11:38.512Z,26.30
2023-06-04T17:14:07.065Z,26.20
2023-06-04T17:16:38.032Z,26.00
2023-06-04T17:19:13.691Z,25.90
2023-06-04T17:21:40.820Z,26.00
2023-06-04T17:24:10.040Z,25.90
2023-06-04T17:26:37.434Z,25.80
2023-06-04T17:29:08.225Z,25.70
2023-06-04T17:31:38.138Z,25.60
2023-06-04T17:34:05.479Z,25.50
2023-06-04T17:36:36.093Z,25.40
2023-06-04T17:39:03.080Z,25.40
2023-06-04T17:41:30.171Z,25.30
2023-06-04T17:43:57.225Z,25.40
2023-06-04T17:46:25.305Z,25.30
2023-06-04T17:48:56.486Z,25.30
2023-06-04T17:51:26.394Z,25.20
2023-06-04T17:53:53.551Z,25.10
2023-06-04T17:56:22.145Z,25.00
2023-06-04T17:58:49.054Z,25.00
2023-06-04T18:01:16.596Z,25.00
2023-06-04T18:03:44.024Z,25.00
2023-06-04T18:06:12.334Z,25.00
2023-06-04T18:08:41.874Z,25.00
2023-06-04T18:11:09.248Z,25.00
2023-06-04T18:13:37.318Z,24.80
2023-06-04T18:16:04.758Z,24.80
2023-06-04T18:18:31.804Z,24.70
2023-06-04T18:20:59.776Z,24.70
2023-06-04T18:23:26.794Z,24.60
2023-06-04T18:25:53.905Z,24.60
2023-06-04T18:28:22.262Z,24.50
2023-06-04T18:30:51.236Z,24.40
2023-06-04T18:33:24.039Z,24.30
2023-06-04T18:35:53.082Z,24.30
2023-06-04T18:38:21.163Z,24.30
2023-06-04T18:40:48.317Z,24.30
2023-06-04T18:43:16.555Z,24.30
2023-06-04T18:45:43.567Z,24.20
2023-06-04T18:48:10.644Z,24.20
2023-06-04T18:50:37.965Z,24.20
2023-06-04T18:53:04.898Z,24.10
2023-06-04T18:55:31.894Z,24.00
2023-06-04T18:57:58.911Z,23.90
2023-06-04T19:00:26.298Z,23.90
2023-06-04T19:02:56.424Z,23.90
2023-06-04T19:05:27.708Z,23.90
2023-06-04T19:07:54.700Z,23.90
2023-06-04T19:10:21.774Z,23.80
2023-06-04T19:12:48.752Z,23.80
2023-06-04T19:15:17.931Z,23.70
2023-06-04T19:17:45.135Z,23.70
2023-06-04T19:20:13.666Z,23.60
2023-06-04T19:22:40.721Z,23.30
2023-06-04T19:25:09.145Z,23.20
2023-06-04T19:27:36.471Z,23.00
2023-06-04T19:30:03.755Z,23.00
2023-06-04T19:32:30.921Z,22.80
2023-06-04T19:34:57.830Z,22.80
2023-06-04T19:37:24.881Z,22.80
2023-06-04T19:39:56.618Z,22.60
2023-06-04T19:42:25.596Z,22.40
2023-06-04T19:44:52.876Z,22.30
2023-06-04T19:47:24.596Z,22.30
2023-06-04T19:49:52.105Z,22.40
2023-06-04T19:52:23.123Z,22.30
2023-06-04T19:54:50.735Z,22.20
2023-06-04T19:57:19.515Z,22.20
2023-06-04T19:59:47.946Z,22.00
2023-06-04T20:02:16.511Z,21.90
2023-06-04T20:04:43.560Z,21.80
2023-06-04T20:07:10.995Z,21.80
2023-06-04T20:09:37.985Z,21.70
2023-06-04T20:12:05.287Z,21.60
2023-06-04T20:14:33.309Z,21.50
2023-06-04T20:17:00.660Z,21.50
2023-06-04T20:19:29.036Z,21.40
2023-06-04T20:22:00.706Z,21.40
2023-06-04T20:24:28.682Z,21.30
2023-06-04T20:26:58.157Z,21.30
2023-06-04T20:29:28.515Z,21.20
2023-06-04T20:31:55.621Z,21.10
2023-06-04T20:34:23.808Z,21.10
2023-06-04T20:36:56.208Z,21.10
2023-06-04T20:39:24.664Z,20.90
2023-06-04T20:41:51.628Z,20.80
2023-06-04T20:44:21.040Z,20.80
2023-06-04T20:46:51.204Z,20.70
2023-06-04T20:49:20.339Z,20.60
2023-06-04T20:51:48.429Z,20.60
2023-06-04T20:54:15.669Z,20.60
2023-06-04T20:56:44.447Z,20.50
2023-06-04T20:59:14.212Z,20.50
2023-06-04T21:01:41.273Z,20.40
2023-06-04T21:04:09.347Z,20.30
2023-06-04T21:06:36.531Z,20.30
2023-06-04T21:09:06.860Z,20.20
2023-06-04T21:11:33.992Z,20.20
2023-06-04T21:14:02.127Z,20.10
2023-06-04T21:16:29.108Z,20.10
2023-06-04T21:19:04.721Z,20.00
2023-06-04T21:21:32.849Z,20.00
2023-06-04T21:24:01.327Z,19.90
2023-06-04T21:26:31.398Z,19.90
2023-06-04T21:28:59.398Z,19.70
2023-06-04T21:31:27.650Z,19.60
2023-06-04T21:33:55.608Z,19.60
2023-06-04T21:36:24.615Z,19.60
2023-06-04T21:38:52.957Z,19.50
2023-06-04T21:41:25.043Z,19.50
2023-06-04T21:43:53.204Z,19.40
2023-06-04T21:46:25.775Z,19.30
2023-06-04T21:48:54.226Z,19.30
2023-06-04T21:51:22.513Z,19.20
2023-06-04T21:53:52.298Z,19.20
2023-06-04T21:56:19.277Z,19.10
2023-06-04T21:58:46.369Z,19.10
2023-06-04T22:01:13.475Z,19.00
2023-06-04T22:03:42.224Z,18.90
2023-06-04T22:06:09.427Z,18.90
2023-06-04T22:08:36.450Z,18.90
2023-06-04T22:11:03.733Z,18.80
2023-06-04T22:13:32.926Z,18.70
2023-06-04T22:16:02.252Z,18.80
2023-06-04T22:18:44.371Z,18.80
2023-06-04T22:21:23.069Z,18.80
2023-06-04T22:23:51.350Z,18.60
2023-06-04T22:26:32.954Z,18.50
2023-06-04T22:29:05.648Z,18.50
2023-06-04T22:31:32.880Z,18.50
2023-06-04T22:34:00.165Z,18.50
2023-06-04T22:36:27.250Z,18.30
2023-06-04T22:38:56.656Z,18.20
2023-06-04T22:41:24.733Z,18.20
2023-06-04T22:43:52.719Z,18.20
2023-06-04T22:46:19.826Z,18.30
2023-06-04T22:48:46.834Z,18.10
2023-06-04T22:51:15.479Z,18.10
2023-06-04T22:53:43.791Z,18.20
2023-06-04T22:56:12.810Z,18.20
2023-06-04T22:58:41.097Z,18.20
2023-06-04T23:01:08.841Z,18.00
2023-06-04T23:03:39.369Z,18.00
2023-06-04T23:06:07.338Z,17.90
2023-06-04T23:08:34.417Z,17.90
2023-06-04T23:11:02.347Z,17.90
2023-06-04T23:13:29.326Z,17.80
2023-06-04T23:15:58.161Z,17.80
2023-06-04T23:18:25.482Z,17.70
2023-06-04T23:20:58.456Z,17.70
2023-06-04T23:23:28.062Z,17.70
2023-06-04T23:25:56.101Z,17.60
2023-06-04T23:28:23.149Z,17.70
2023-06-04T23:30:51.180Z,17.70
2023-06-04T23:33:19.267Z,17.60
2023-06-04T23:35:47.816Z,17.60
2023-06-04T23:38:18.035Z,17.50
2023-06-04T23:40:45.999Z,17.50
2023-06-04T23:43:13.072Z,17.40
2023-06-04T23:45:41.372Z,17.50
2023-06-04T23:48:08.525Z,17.40
2023-06-04T23:50:41.497Z,17.30
2023-06-04T23:53:08.613Z,17.30
2023-06-04T23:55:35.875Z,17.30
2023-06-04T23:58:03.824Z,17.30
